This is the latest recevied weather packets stored in our database for station/object N7AWM. If no packets are shown the sender has not sent any weather packets the latest 10 day(s).
| Time | Temp. | Humidity | Pressure | Rain* | Wind** | Luminosity | Snow |
|---|---|---|---|---|---|---|---|
| 1777573327 | 19.44° C | 43% | 1018.6 hPa | 0 mm | - | - | - |
| 1777572487 | 18.89° C | 45% | 1018.7 hPa | 0 mm | - | - | - |
| 1777571647 | 18.33° C | 47% | 1018.8 hPa | 0 mm | - | - | - |
| 1777570807 | 17.78° C | 50% | 1018.9 hPa | 0 mm | - | - | - |
| 1777569967 | 17.78° C | 47% | 1019 hPa | 0 mm | - | - | - |
| 1777569127 | 16.67° C | 51% | 1019.2 hPa | 0 mm | - | - | - |
| 1777568287 | 16.67° C | 53% | 1019.2 hPa | 0 mm | - | - | - |
| 1777567448 | 16.11° C | 50% | 1019.3 hPa | 0 mm | - | - | - |
| 1777566608 | 15.56° C | 50% | 1019.4 hPa | 0 mm | - | - | - |
| 1777565843 | 14.44° C | 56% | 1019.6 hPa | 0 mm | - | - | - |
| 1777565768 | 14.44° C | 56% | 1019.6 hPa | 0 mm | - | - | - |
| 1777564928 | 13.89° C | 56% | 1019.7 hPa | 0 mm | - | - | - |
| 1777563397 | 12.78° C | 60% | 1019.8 hPa | 0 mm | - | - | - |
| 1777562557 | 12.78° C | 60% | 1019.8 hPa | 0 mm | - | - | - |
| 1777561717 | 12.78° C | 60% | 1019.9 hPa | 0 mm | - | - | - |
| 1777560877 | 12.78° C | 58% | 1019.9 hPa | 0 mm | - | - | - |
| 1777560037 | 12.78° C | 58% | 1019.9 hPa | 0 mm | - | - | - |
| 1777559234 | 11.67° C | 64% | 1019.9 hPa | 0 mm | - | - | - |
| 1777559197 | 11.67° C | 64% | 1019.9 hPa | 0 mm | - | - | - |
| 1777558358 | 10.56° C | 65% | 1019.8 hPa | 0 mm | - | - | - |
| 1777557518 | 9.44° C | 68% | 1019.6 hPa | 0 mm | - | - | - |
| 1777556678 | 8.33° C | 73% | 1019.5 hPa | 0 mm | - | - | - |
| 1777555880 | 7.78° C | 74% | 1019.4 hPa | 0 mm | - | - | - |
| 1777555838 | 7.78° C | 74% | 1019.4 hPa | 0 mm | - | - | - |
| 1777554998 | 7.22° C | 74% | 1019.2 hPa | 0 mm | - | - | - |
* Rain latest hour (hover to see other rain measurements)
** Current wind speed in m/s (hover to see current wind gust speed)